sensor_id;sensor_type;location;lat;lon;timestamp;P1;durP1;ratioP1;P2;durP2;ratioP2
35745;SDS011;21870;42.812;74.628;2023-03-23T00:01:11;2.30;;;2.20;;
35745;SDS011;21870;42.812;74.628;2023-03-23T00:03:42;2.00;;;1.85;;
35745;SDS011;21870;42.812;74.628;2023-03-23T00:06:08;1.80;;;1.70;;
35745;SDS011;21870;42.812;74.628;2023-03-23T00:08:35;3.83;;;2.13;;
35745;SDS011;21870;42.812;74.628;2023-03-23T00:11:06;1.90;;;1.80;;
35745;SDS011;21870;42.812;74.628;2023-03-23T00:13:32;2.05;;;1.95;;
35745;SDS011;21870;42.812;74.628;2023-03-23T00:15:59;1.92;;;1.83;;
35745;SDS011;21870;42.812;74.628;2023-03-23T00:18:25;1.80;;;1.70;;
35745;SDS011;21870;42.812;74.628;2023-03-23T00:20:55;5.30;;;4.30;;
35745;SDS011;21870;42.812;74.628;2023-03-23T00:23:23;15.23;;;13.65;;
35745;SDS011;21870;42.812;74.628;2023-03-23T00:25:54;3.60;;;3.30;;
35745;SDS011;21870;42.812;74.628;2023-03-23T00:28:24;1.80;;;1.70;;
35745;SDS011;21870;42.812;74.628;2023-03-23T00:30:59;1.83;;;1.73;;
35745;SDS011;21870;42.812;74.628;2023-03-23T00:33:27;2.47;;;1.73;;
35745;SDS011;21870;42.812;74.628;2023-03-23T00:35:55;2.55;;;2.35;;
35745;SDS011;21870;42.812;74.628;2023-03-23T00:38:21;1.95;;;1.85;;
35745;SDS011;21870;42.812;74.628;2023-03-23T00:40:48;3.63;;;2.15;;
35745;SDS011;21870;42.812;74.628;2023-03-23T00:43:18;3.00;;;2.80;;
35745;SDS011;21870;42.812;74.628;2023-03-23T00:45:45;4.45;;;4.05;;
35745;SDS011;21870;42.812;74.628;2023-03-23T00:48:20;2.25;;;2.05;;
35745;SDS011;21870;42.812;74.628;2023-03-23T00:50:48;1.88;;;1.77;;
35745;SDS011;21870;42.812;74.628;2023-03-23T00:53:15;2.00;;;1.90;;
35745;SDS011;21870;42.812;74.628;2023-03-23T00:55:42;1.90;;;1.80;;
35745;SDS011;21870;42.812;74.628;2023-03-23T00:58:10;2.72;;;1.98;;
35745;SDS011;21870;42.812;74.628;2023-03-23T01:00:37;1.95;;;1.85;;
35745;SDS011;21870;42.812;74.628;2023-03-23T01:03:03;1.77;;;1.50;;
35745;SDS011;21870;42.812;74.628;2023-03-23T01:05:33;2.60;;;1.88;;
35745;SDS011;21870;42.812;74.628;2023-03-23T01:08:04;1.92;;;1.50;;
35745;SDS011;21870;42.812;74.628;2023-03-23T01:10:31;6.60;;;2.13;;
35745;SDS011;21870;42.812;74.628;2023-03-23T01:12:59;2.90;;;2.22;;
35745;SDS011;21870;42.812;74.628;2023-03-23T01:15:26;2.88;;;2.17;;
35745;SDS011;21870;42.812;74.628;2023-03-23T01:17:53;3.45;;;2.00;;
35745;SDS011;21870;42.812;74.628;2023-03-23T01:20:20;1.85;;;1.65;;
35745;SDS011;21870;42.812;74.628;2023-03-23T01:22:46;2.08;;;1.98;;
35745;SDS011;21870;42.812;74.628;2023-03-23T01:25:12;12.68;;;11.45;;
35745;SDS011;21870;42.812;74.628;2023-03-23T01:27:39;16.95;;;15.63;;
35745;SDS011;21870;42.812;74.628;2023-03-23T01:30:08;2.58;;;2.20;;
35745;SDS011;21870;42.812;74.628;2023-03-23T01:32:37;5.05;;;2.25;;
35745;SDS011;21870;42.812;74.628;2023-03-23T01:35:04;1.88;;;1.77;;
35745;SDS011;21870;42.812;74.628;2023-03-23T01:37:31;6.45;;;1.75;;
35745;SDS011;21870;42.812;74.628;2023-03-23T01:39:57;3.50;;;2.25;;
35745;SDS011;21870;42.812;74.628;2023-03-23T01:42:24;2.05;;;1.95;;
35745;SDS011;21870;42.812;74.628;2023-03-23T01:47:47;2.22;;;1.85;;
35745;SDS011;21870;42.812;74.628;2023-03-23T01:50:18;2.33;;;1.73;;
35745;SDS011;21870;42.812;74.628;2023-03-23T01:52:48;2.15;;;1.85;;
35745;SDS011;21870;42.812;74.628;2023-03-23T01:55:16;2.00;;;1.90;;
35745;SDS011;21870;42.812;74.628;2023-03-23T01:57:43;2.20;;;2.00;;
35745;SDS011;21870;42.812;74.628;2023-03-23T02:00:10;4.18;;;1.77;;
35745;SDS011;21870;42.812;74.628;2023-03-23T02:02:40;2.42;;;1.73;;
35745;SDS011;21870;42.812;74.628;2023-03-23T02:05:10;1.60;;;1.50;;
35745;SDS011;21870;42.812;74.628;2023-03-23T02:07:38;7.65;;;1.98;;
35745;SDS011;21870;42.812;74.628;2023-03-23T02:10:05;11.35;;;2.83;;
35745;SDS011;21870;42.812;74.628;2023-03-23T02:12:32;13.52;;;2.42;;
35745;SDS011;21870;42.812;74.628;2023-03-23T02:14:58;12.80;;;3.20;;
35745;SDS011;21870;42.812;74.628;2023-03-23T02:17:28;12.40;;;3.58;;
35745;SDS011;21870;42.812;74.628;2023-03-23T02:20:29;5.20;;;2.45;;
35745;SDS011;21870;42.812;74.628;2023-03-23T02:23:04;13.93;;;3.35;;
35745;SDS011;21870;42.812;74.628;2023-03-23T02:31:27;9.10;;;3.13;;
35745;SDS011;21870;42.812;74.628;2023-03-23T02:34:11;21.33;;;4.07;;
35745;SDS011;21870;42.812;74.628;2023-03-23T02:36:46;33.50;;;5.50;;
35745;SDS011;21870;42.812;74.628;2023-03-23T02:39:56;13.25;;;3.50;;
35745;SDS011;21870;42.812;74.628;2023-03-23T02:42:25;27.75;;;4.80;;
35745;SDS011;21870;42.812;74.628;2023-03-23T02:44:54;37.30;;;6.05;;
35745;SDS011;21870;42.812;74.628;2023-03-23T02:47:23;27.70;;;5.07;;
35745;SDS011;21870;42.812;74.628;2023-03-23T02:49:53;16.38;;;4.45;;
35745;SDS011;21870;42.812;74.628;2023-03-23T02:52:22;11.38;;;3.70;;
35745;SDS011;21870;42.812;74.628;2023-03-23T02:54:50;11.65;;;4.80;;
35745;SDS011;21870;42.812;74.628;2023-03-23T02:57:18;10.57;;;3.70;;
35745;SDS011;21870;42.812;74.628;2023-03-23T02:59:46;19.23;;;4.15;;
35745;SDS011;21870;42.812;74.628;2023-03-23T03:02:13;10.73;;;4.28;;
35745;SDS011;21870;42.812;74.628;2023-03-23T03:04:45;6.90;;;3.45;;
35745;SDS011;21870;42.812;74.628;2023-03-23T03:07:27;9.38;;;3.35;;
35745;SDS011;21870;42.812;74.628;2023-03-23T03:10:09;9.75;;;3.45;;
35745;SDS011;21870;42.812;74.628;2023-03-23T03:15:36;8.27;;;3.28;;
35745;SDS011;21870;42.812;74.628;2023-03-23T03:18:27;7.22;;;3.50;;
35745;SDS011;21870;42.812;74.628;2023-03-23T03:21:06;10.23;;;3.30;;
35745;SDS011;21870;42.812;74.628;2023-03-23T03:23:36;5.32;;;3.20;;
35745;SDS011;21870;42.812;74.628;2023-03-23T03:26:09;8.70;;;3.00;;
35745;SDS011;21870;42.812;74.628;2023-03-23T03:28:37;4.97;;;3.22;;
35745;SDS011;21870;42.812;74.628;2023-03-23T03:31:04;6.68;;;3.50;;
35745;SDS011;21870;42.812;74.628;2023-03-23T03:33:33;10.20;;;3.53;;
35745;SDS011;21870;42.812;74.628;2023-03-23T03:36:01;9.82;;;3.75;;
35745;SDS011;21870;42.812;74.628;2023-03-23T03:38:29;5.38;;;3.15;;
35745;SDS011;21870;42.812;74.628;2023-03-23T03:41:05;7.43;;;2.88;;
35745;SDS011;21870;42.812;74.628;2023-03-23T03:43:34;6.95;;;2.70;;
35745;SDS011;21870;42.812;74.628;2023-03-23T03:46:01;3.92;;;2.03;;
35745;SDS011;21870;42.812;74.628;2023-03-23T03:48:27;5.68;;;2.33;;
35745;SDS011;21870;42.812;74.628;2023-03-23T03:50:53;2.65;;;1.83;;
35745;SDS011;21870;42.812;74.628;2023-03-23T03:53:22;1.75;;;1.65;;
35745;SDS011;21870;42.812;74.628;2023-03-23T03:55:49;2.35;;;1.90;;
35745;SDS011;21870;42.812;74.628;2023-03-23T03:58:15;4.03;;;1.80;;
35745;SDS011;21870;42.812;74.628;2023-03-23T04:00:42;2.88;;;1.80;;
35745;SDS011;21870;42.812;74.628;2023-03-23T04:03:13;6.15;;;2.33;;
35745;SDS011;21870;42.812;74.628;2023-03-23T04:05:40;5.07;;;1.80;;
35745;SDS011;21870;42.812;74.628;2023-03-23T04:08:06;3.03;;;1.83;;
35745;SDS011;21870;42.812;74.628;2023-03-23T04:10:33;3.10;;;2.53;;
35745;SDS011;21870;42.812;74.628;2023-03-23T04:12:59;3.35;;;2.40;;
35745;SDS011;21870;42.812;74.628;2023-03-23T04:15:25;4.20;;;1.95;;
35745;SDS011;21870;42.812;74.628;2023-03-23T04:17:52;3.17;;;2.17;;
35745;SDS011;21870;42.812;74.628;2023-03-23T04:20:18;5.15;;;2.53;;
35745;SDS011;21870;42.812;74.628;2023-03-23T04:22:44;5.32;;;2.22;;
35745;SDS011;21870;42.812;74.628;2023-03-23T04:25:14;2.38;;;2.17;;
35745;SDS011;21870;42.812;74.628;2023-03-23T04:27:42;2.55;;;2.33;;
35745;SDS011;21870;42.812;74.628;2023-03-23T04:30:09;10.77;;;3.05;;
35745;SDS011;21870;42.812;74.628;2023-03-23T04:32:38;4.35;;;2.28;;
35745;SDS011;21870;42.812;74.628;2023-03-23T04:35:08;4.22;;;2.88;;
35745;SDS011;21870;42.812;74.628;2023-03-23T04:37:36;5.38;;;2.55;;
35745;SDS011;21870;42.812;74.628;2023-03-23T04:40:07;14.95;;;2.50;;
35745;SDS011;21870;42.812;74.628;2023-03-23T04:42:37;5.15;;;2.25;;
35745;SDS011;21870;42.812;74.628;2023-03-23T04:45:05;3.92;;;1.90;;
35745;SDS011;21870;42.812;74.628;2023-03-23T04:47:34;3.55;;;2.20;;
35745;SDS011;21870;42.812;74.628;2023-03-23T04:50:08;3.03;;;2.13;;
35745;SDS011;21870;42.812;74.628;2023-03-23T04:52:37;12.18;;;3.25;;
35745;SDS011;21870;42.812;74.628;2023-03-23T04:55:06;7.75;;;2.78;;
35745;SDS011;21870;42.812;74.628;2023-03-23T04:57:34;4.53;;;2.40;;
35745;SDS011;21870;42.812;74.628;2023-03-23T05:00:01;3.28;;;2.20;;
35745;SDS011;21870;42.812;74.628;2023-03-23T05:02:36;3.63;;;2.25;;
35745;SDS011;21870;42.812;74.628;2023-03-23T05:05:07;4.30;;;2.55;;
35745;SDS011;21870;42.812;74.628;2023-03-23T05:07:36;6.78;;;2.85;;
35745;SDS011;21870;42.812;74.628;2023-03-23T05:10:04;23.63;;;4.97;;
35745;SDS011;21870;42.812;74.628;2023-03-23T05:12:30;5.30;;;3.28;;
35745;SDS011;21870;42.812;74.628;2023-03-23T05:14:57;6.57;;;3.15;;
35745;SDS011;21870;42.812;74.628;2023-03-23T05:17:23;7.40;;;3.00;;
35745;SDS011;21870;42.812;74.628;2023-03-23T05:19:52;6.47;;;2.60;;
35745;SDS011;21870;42.812;74.628;2023-03-23T05:22:19;5.80;;;3.20;;
35745;SDS011;21870;42.812;74.628;2023-03-23T05:24:46;9.98;;;3.20;;
35745;SDS011;21870;42.812;74.628;2023-03-23T05:27:13;3.58;;;2.40;;
35745;SDS011;21870;42.812;74.628;2023-03-23T05:29:40;6.47;;;2.33;;
35745;SDS011;21870;42.812;74.628;2023-03-23T05:32:06;12.45;;;6.35;;
35745;SDS011;21870;42.812;74.628;2023-03-23T05:34:36;5.32;;;4.38;;
35745;SDS011;21870;42.812;74.628;2023-03-23T05:37:02;6.40;;;2.80;;
35745;SDS011;21870;42.812;74.628;2023-03-23T05:39:29;6.95;;;3.65;;
35745;SDS011;21870;42.812;74.628;2023-03-23T05:41:56;13.85;;;4.07;;
35745;SDS011;21870;42.812;74.628;2023-03-23T05:44:22;11.90;;;3.53;;
35745;SDS011;21870;42.812;74.628;2023-03-23T05:46:49;12.77;;;3.90;;
35745;SDS011;21870;42.812;74.628;2023-03-23T05:49:15;13.52;;;4.70;;
35745;SDS011;21870;42.812;74.628;2023-03-23T05:51:43;11.65;;;4.70;;
35745;SDS011;21870;42.812;74.628;2023-03-23T05:54:11;12.63;;;5.00;;
35745;SDS011;21870;42.812;74.628;2023-03-23T05:56:38;14.23;;;4.85;;
35745;SDS011;21870;42.812;74.628;2023-03-23T05:59:04;15.20;;;4.80;;
35745;SDS011;21870;42.812;74.628;2023-03-23T06:01:30;22.17;;;7.28;;
35745;SDS011;21870;42.812;74.628;2023-03-23T06:03:57;22.30;;;7.53;;
35745;SDS011;21870;42.812;74.628;2023-03-23T06:06:25;17.77;;;6.72;;
35745;SDS011;21870;42.812;74.628;2023-03-23T06:08:52;19.75;;;6.90;;
35745;SDS011;21870;42.812;74.628;2023-03-23T06:11:18;25.40;;;8.60;;
35745;SDS011;21870;42.812;74.628;2023-03-23T06:13:44;24.83;;;7.43;;
35745;SDS011;21870;42.812;74.628;2023-03-23T06:16:10;15.77;;;6.05;;
35745;SDS011;21870;42.812;74.628;2023-03-23T06:18:36;17.67;;;6.25;;
35745;SDS011;21870;42.812;74.628;2023-03-23T06:21:06;20.05;;;6.32;;
35745;SDS011;21870;42.812;74.628;2023-03-23T06:23:33;13.70;;;4.88;;
35745;SDS011;21870;42.812;74.628;2023-03-23T06:26:01;29.77;;;6.00;;
35745;SDS011;21870;42.812;74.628;2023-03-23T06:28:33;24.23;;;6.88;;
35745;SDS011;21870;42.812;74.628;2023-03-23T06:31:04;8.50;;;3.83;;
35745;SDS011;21870;42.812;74.628;2023-03-23T06:33:32;9.25;;;3.72;;
35745;SDS011;21870;42.812;74.628;2023-03-23T06:35:59;10.32;;;4.07;;
35745;SDS011;21870;42.812;74.628;2023-03-23T06:38:25;9.85;;;3.80;;
35745;SDS011;21870;42.812;74.628;2023-03-23T06:40:52;15.90;;;4.93;;
35745;SDS011;21870;42.812;74.628;2023-03-23T06:43:19;11.73;;;4.32;;
35745;SDS011;21870;42.812;74.628;2023-03-23T06:45:45;8.98;;;4.18;;
35745;SDS011;21870;42.812;74.628;2023-03-23T06:48:11;11.80;;;4.10;;
35745;SDS011;21870;42.812;74.628;2023-03-23T06:50:37;13.27;;;5.97;;
35745;SDS011;21870;42.812;74.628;2023-03-23T06:53:04;8.20;;;3.08;;
35745;SDS011;21870;42.812;74.628;2023-03-23T06:55:30;6.72;;;2.70;;
35745;SDS011;21870;42.812;74.628;2023-03-23T06:57:56;7.97;;;4.20;;
35745;SDS011;21870;42.812;74.628;2023-03-23T07:00:24;10.05;;;4.35;;
35745;SDS011;21870;42.812;74.628;2023-03-23T07:02:50;10.43;;;4.60;;
35745;SDS011;21870;42.812;74.628;2023-03-23T07:05:16;14.90;;;5.82;;
35745;SDS011;21870;42.812;74.628;2023-03-23T07:07:42;13.40;;;5.43;;
35745;SDS011;21870;42.812;74.628;2023-03-23T07:10:09;20.75;;;5.97;;
35745;SDS011;21870;42.812;74.628;2023-03-23T07:12:36;17.83;;;6.47;;
35745;SDS011;21870;42.812;74.628;2023-03-23T07:15:03;19.13;;;6.75;;
35745;SDS011;21870;42.812;74.628;2023-03-23T07:17:29;11.75;;;4.68;;
35745;SDS011;21870;42.812;74.628;2023-03-23T07:19:56;11.18;;;4.40;;
35745;SDS011;21870;42.812;74.628;2023-03-23T07:22:22;11.88;;;5.00;;
35745;SDS011;21870;42.812;74.628;2023-03-23T07:24:48;11.00;;;3.78;;
35745;SDS011;21870;42.812;74.628;2023-03-23T07:27:15;9.32;;;4.18;;
35745;SDS011;21870;42.812;74.628;2023-03-23T07:29:41;13.57;;;5.28;;
35745;SDS011;21870;42.812;74.628;2023-03-23T07:32:08;15.27;;;4.97;;
35745;SDS011;21870;42.812;74.628;2023-03-23T07:34:37;13.15;;;5.15;;
35745;SDS011;21870;42.812;74.628;2023-03-23T07:37:03;5.70;;;3.55;;
35745;SDS011;21870;42.812;74.628;2023-03-23T07:39:31;10.43;;;4.45;;
35745;SDS011;21870;42.812;74.628;2023-03-23T07:41:58;17.63;;;5.22;;
35745;SDS011;21870;42.812;74.628;2023-03-23T07:44:24;11.40;;;4.65;;
35745;SDS011;21870;42.812;74.628;2023-03-23T07:46:51;9.65;;;4.75;;
35745;SDS011;21870;42.812;74.628;2023-03-23T07:49:17;8.70;;;4.60;;
35745;SDS011;21870;42.812;74.628;2023-03-23T07:51:44;9.93;;;4.72;;
35745;SDS011;21870;42.812;74.628;2023-03-23T07:54:11;12.10;;;5.03;;
35745;SDS011;21870;42.812;74.628;2023-03-23T07:56:37;14.05;;;5.85;;
35745;SDS011;21870;42.812;74.628;2023-03-23T07:59:07;12.15;;;4.90;;
35745;SDS011;21870;42.812;74.628;2023-03-23T08:01:33;10.27;;;5.07;;
35745;SDS011;21870;42.812;74.628;2023-03-23T08:04:00;9.20;;;4.55;;
35745;SDS011;21870;42.812;74.628;2023-03-23T08:06:26;13.10;;;5.15;;
35745;SDS011;21870;42.812;74.628;2023-03-23T08:08:53;8.57;;;5.03;;
35745;SDS011;21870;42.812;74.628;2023-03-23T08:11:20;6.97;;;4.30;;
35745;SDS011;21870;42.812;74.628;2023-03-23T08:13:47;20.20;;;6.22;;
35745;SDS011;21870;42.812;74.628;2023-03-23T08:16:13;36.53;;;7.95;;
35745;SDS011;21870;42.812;74.628;2023-03-23T08:18:39;11.63;;;5.20;;
35745;SDS011;21870;42.812;74.628;2023-03-23T08:21:06;7.90;;;4.90;;
35745;SDS011;21870;42.812;74.628;2023-03-23T08:23:36;8.85;;;4.65;;
35745;SDS011;21870;42.812;74.628;2023-03-23T08:26:03;7.53;;;4.55;;
35745;SDS011;21870;42.812;74.628;2023-03-23T08:28:34;15.95;;;5.00;;
35745;SDS011;21870;42.812;74.628;2023-03-23T08:31:07;9.05;;;4.85;;
35745;SDS011;21870;42.812;74.628;2023-03-23T08:33:35;9.82;;;4.68;;
35745;SDS011;21870;42.812;74.628;2023-03-23T08:36:02;7.00;;;4.55;;
35745;SDS011;21870;42.812;74.628;2023-03-23T08:38:29;8.55;;;5.28;;
35745;SDS011;21870;42.812;74.628;2023-03-23T08:40:59;9.10;;;5.05;;
35745;SDS011;21870;42.812;74.628;2023-03-23T08:43:30;32.28;;;7.88;;
35745;SDS011;21870;42.812;74.628;2023-03-23T08:45:57;18.13;;;6.72;;
35745;SDS011;21870;42.812;74.628;2023-03-23T08:48:24;5.93;;;4.03;;
35745;SDS011;21870;42.812;74.628;2023-03-23T08:50:50;7.00;;;4.75;;
35745;SDS011;21870;42.812;74.628;2023-03-23T08:53:20;6.15;;;3.90;;
35745;SDS011;21870;42.812;74.628;2023-03-23T08:55:46;7.18;;;3.70;;
35745;SDS011;21870;42.812;74.628;2023-03-23T08:58:15;5.07;;;4.32;;
35745;SDS011;21870;42.812;74.628;2023-03-23T09:00:42;8.60;;;4.60;;
35745;SDS011;21870;42.812;74.628;2023-03-23T09:03:08;5.47;;;3.92;;
35745;SDS011;21870;42.812;74.628;2023-03-23T09:05:35;7.63;;;4.43;;
35745;SDS011;21870;42.812;74.628;2023-03-23T09:08:04;13.13;;;5.28;;
35745;SDS011;21870;42.812;74.628;2023-03-23T09:10:30;11.90;;;4.93;;
35745;SDS011;21870;42.812;74.628;2023-03-23T09:12:56;13.07;;;5.22;;
35745;SDS011;21870;42.812;74.628;2023-03-23T09:15:23;15.10;;;5.45;;
35745;SDS011;21870;42.812;74.628;2023-03-23T09:17:50;11.73;;;4.97;;
35745;SDS011;21870;42.812;74.628;2023-03-23T09:20:19;13.73;;;7.25;;
35745;SDS011;21870;42.812;74.628;2023-03-23T09:22:48;24.08;;;6.82;;
35745;SDS011;21870;42.812;74.628;2023-03-23T09:25:18;14.45;;;6.10;;
35745;SDS011;21870;42.812;74.628;2023-03-23T09:27:50;25.85;;;7.00;;
35745;SDS011;21870;42.812;74.628;2023-03-23T09:30:21;25.33;;;7.68;;
35745;SDS011;21870;42.812;74.628;2023-03-23T09:32:49;16.05;;;6.05;;
35745;SDS011;21870;42.812;74.628;2023-03-23T09:35:17;17.95;;;6.50;;
35745;SDS011;21870;42.812;74.628;2023-03-23T09:37:46;21.75;;;6.75;;
35745;SDS011;21870;42.812;74.628;2023-03-23T09:40:21;22.15;;;7.43;;
35745;SDS011;21870;42.812;74.628;2023-03-23T09:43:25;15.80;;;7.72;;
35745;SDS011;21870;42.812;74.628;2023-03-23T09:45:57;71.75;;;11.95;;
35745;SDS011;21870;42.812;74.628;2023-03-23T09:54:43;17.38;;;7.93;;
35745;SDS011;21870;42.812;74.628;2023-03-23T09:56:44;31.27;;;9.95;;
35745;SDS011;21870;42.812;74.628;2023-03-23T09:59:29;28.23;;;11.05;;
35745;SDS011;21870;42.812;74.628;2023-03-23T10:02:30;20.67;;;9.65;;
35745;SDS011;21870;42.812;74.628;2023-03-23T10:05:06;17.83;;;8.57;;
35745;SDS011;21870;42.812;74.628;2023-03-23T10:07:50;17.35;;;8.00;;
35745;SDS011;21870;42.812;74.628;2023-03-23T10:10:16;15.18;;;8.30;;
35745;SDS011;21870;42.812;74.628;2023-03-23T10:13:30;18.02;;;8.23;;
35745;SDS011;21870;42.812;74.628;2023-03-23T10:15:43;13.30;;;8.23;;
35745;SDS011;21870;42.812;74.628;2023-03-23T10:20:46;8.65;;;7.18;;
35745;SDS011;21870;42.812;74.628;2023-03-23T10:28:37;18.33;;;10.30;;
35745;SDS011;21870;42.812;74.628;2023-03-23T10:31:21;17.67;;;9.73;;
35745;SDS011;21870;42.812;74.628;2023-03-23T10:33:54;17.63;;;10.10;;
35745;SDS011;21870;42.812;74.628;2023-03-23T10:36:24;19.35;;;10.18;;
35745;SDS011;21870;42.812;74.628;2023-03-23T10:41:36;19.38;;;8.90;;
35745;SDS011;21870;42.812;74.628;2023-03-23T10:44:19;17.77;;;9.30;;
35745;SDS011;21870;42.812;74.628;2023-03-23T10:46:54;13.52;;;8.02;;
35745;SDS011;21870;42.812;74.628;2023-03-23T10:49:29;11.00;;;5.72;;
35745;SDS011;21870;42.812;74.628;2023-03-23T10:52:27;23.50;;;6.47;;
35745;SDS011;21870;42.812;74.628;2023-03-23T10:55:03;14.38;;;5.90;;
35745;SDS011;21870;42.812;74.628;2023-03-23T10:57:36;15.63;;;6.35;;
35745;SDS011;21870;42.812;74.628;2023-03-23T11:00:17;16.80;;;6.72;;
35745;SDS011;21870;42.812;74.628;2023-03-23T11:03:04;13.23;;;6.07;;
35745;SDS011;21870;42.812;74.628;2023-03-23T11:06:10;17.75;;;6.97;;
35745;SDS011;21870;42.812;74.628;2023-03-23T11:11:43;9.88;;;6.03;;
35745;SDS011;21870;42.812;74.628;2023-03-23T11:16:49;18.10;;;7.95;;
35745;SDS011;21870;42.812;74.628;2023-03-23T11:19:23;14.23;;;7.10;;
35745;SDS011;21870;42.812;74.628;2023-03-23T11:21:52;19.17;;;7.13;;
35745;SDS011;21870;42.812;74.628;2023-03-23T11:24:24;20.17;;;8.05;;
35745;SDS011;21870;42.812;74.628;2023-03-23T11:26:52;11.90;;;7.13;;
35745;SDS011;21870;42.812;74.628;2023-03-23T11:29:23;10.23;;;6.22;;
35745;SDS011;21870;42.812;74.628;2023-03-23T11:34:32;9.68;;;6.80;;
35745;SDS011;21870;42.812;74.628;2023-03-23T11:39:29;11.23;;;5.93;;
35745;SDS011;21870;42.812;74.628;2023-03-23T11:42:21;9.80;;;6.57;;
35745;SDS011;21870;42.812;74.628;2023-03-23T11:44:53;9.00;;;5.80;;
35745;SDS011;21870;42.812;74.628;2023-03-23T11:58:33;11.38;;;7.32;;
35745;SDS011;21870;42.812;74.628;2023-03-23T12:04:25;14.15;;;7.07;;
35745;SDS011;21870;42.812;74.628;2023-03-23T12:12:30;16.40;;;5.80;;
35745;SDS011;21870;42.812;74.628;2023-03-23T12:15:23;9.15;;;6.63;;
35745;SDS011;21870;42.812;74.628;2023-03-23T12:23:44;14.65;;;6.10;;
35745;SDS011;21870;42.812;74.628;2023-03-23T12:26:20;15.07;;;5.57;;
35745;SDS011;21870;42.812;74.628;2023-03-23T12:37:29;12.18;;;5.65;;
35745;SDS011;21870;42.812;74.628;2023-03-23T12:48:23;16.23;;;6.40;;
35745;SDS011;21870;42.812;74.628;2023-03-23T12:59:26;11.60;;;6.13;;
35745;SDS011;21870;42.812;74.628;2023-03-23T13:05:00;18.40;;;7.32;;
35745;SDS011;21870;42.812;74.628;2023-03-23T13:10:48;13.30;;;6.72;;
35745;SDS011;21870;42.812;74.628;2023-03-23T13:13:19;10.07;;;6.32;;
35745;SDS011;21870;42.812;74.628;2023-03-23T13:16:29;41.03;;;9.98;;
35745;SDS011;21870;42.812;74.628;2023-03-23T13:19:03;19.45;;;6.93;;
35745;SDS011;21870;42.812;74.628;2023-03-23T13:24:23;34.90;;;8.32;;
35745;SDS011;21870;42.812;74.628;2023-03-23T13:26:53;28.95;;;8.07;;
35745;SDS011;21870;42.812;74.628;2023-03-23T13:29:23;40.45;;;9.10;;
35745;SDS011;21870;42.812;74.628;2023-03-23T13:31:50;30.10;;;8.80;;
35745;SDS011;21870;42.812;74.628;2023-03-23T13:34:21;46.28;;;14.80;;
35745;SDS011;21870;42.812;74.628;2023-03-23T13:36:55;23.75;;;8.43;;
35745;SDS011;21870;42.812;74.628;2023-03-23T13:39:38;19.52;;;9.30;;
35745;SDS011;21870;42.812;74.628;2023-03-23T13:42:49;22.70;;;11.30;;
35745;SDS011;21870;42.812;74.628;2023-03-23T13:45:21;23.42;;;12.60;;
35745;SDS011;21870;42.812;74.628;2023-03-23T13:50:51;63.83;;;15.23;;
35745;SDS011;21870;42.812;74.628;2023-03-23T13:56:17;59.63;;;16.77;;
35745;SDS011;21870;42.812;74.628;2023-03-23T13:58:47;30.98;;;15.32;;
35745;SDS011;21870;42.812;74.628;2023-03-23T14:01:35;39.47;;;16.60;;
35745;SDS011;21870;42.812;74.628;2023-03-23T14:04:11;22.67;;;15.18;;
35745;SDS011;21870;42.812;74.628;2023-03-23T14:06:41;35.85;;;16.33;;
35745;SDS011;21870;42.812;74.628;2023-03-23T14:14:23;34.08;;;17.20;;
35745;SDS011;21870;42.812;74.628;2023-03-23T14:17:06;39.70;;;16.67;;
35745;SDS011;21870;42.812;74.628;2023-03-23T14:19:38;41.15;;;16.40;;
35745;SDS011;21870;42.812;74.628;2023-03-23T14:22:15;23.90;;;16.23;;
35745;SDS011;21870;42.812;74.628;2023-03-23T14:24:44;22.88;;;15.02;;
35745;SDS011;21870;42.812;74.628;2023-03-23T14:27:13;31.67;;;14.68;;
35745;SDS011;21870;42.812;74.628;2023-03-23T14:29:44;22.27;;;13.60;;
35745;SDS011;21870;42.812;74.628;2023-03-23T14:32:15;24.30;;;12.35;;
35745;SDS011;21870;42.812;74.628;2023-03-23T14:34:43;21.85;;;13.43;;
35745;SDS011;21870;42.812;74.628;2023-03-23T14:37:13;28.15;;;12.65;;
35745;SDS011;21870;42.812;74.628;2023-03-23T14:39:44;17.77;;;11.70;;
35745;SDS011;21870;42.812;74.628;2023-03-23T14:42:16;17.75;;;11.32;;
35745;SDS011;21870;42.812;74.628;2023-03-23T14:44:46;20.00;;;10.30;;
35745;SDS011;21870;42.812;74.628;2023-03-23T14:47:19;13.23;;;9.60;;
35745;SDS011;21870;42.812;74.628;2023-03-23T14:49:46;16.73;;;9.95;;
35745;SDS011;21870;42.812;74.628;2023-03-23T14:52:14;16.35;;;10.20;;
35745;SDS011;21870;42.812;74.628;2023-03-23T14:54:42;13.82;;;9.77;;
35745;SDS011;21870;42.812;74.628;2023-03-23T14:57:20;22.42;;;10.63;;
35745;SDS011;21870;42.812;74.628;2023-03-23T14:59:55;16.38;;;10.38;;
35745;SDS011;21870;42.812;74.628;2023-03-23T15:05:13;20.27;;;10.90;;
35745;SDS011;21870;42.812;74.628;2023-03-23T15:07:43;17.60;;;10.43;;
35745;SDS011;21870;42.812;74.628;2023-03-23T15:10:16;13.45;;;10.30;;
35745;SDS011;21870;42.812;74.628;2023-03-23T15:12:45;18.83;;;11.98;;
35745;SDS011;21870;42.812;74.628;2023-03-23T15:15:22;14.85;;;12.48;;
35745;SDS011;21870;42.812;74.628;2023-03-23T15:17:55;15.73;;;12.35;;
35745;SDS011;21870;42.812;74.628;2023-03-23T15:20:24;16.85;;;12.80;;
35745;SDS011;21870;42.812;74.628;2023-03-23T15:22:52;19.48;;;12.93;;
35745;SDS011;21870;42.812;74.628;2023-03-23T15:25:20;15.43;;;11.57;;
35745;SDS011;21870;42.812;74.628;2023-03-23T15:27:50;15.25;;;11.82;;
35745;SDS011;21870;42.812;74.628;2023-03-23T15:32:52;16.20;;;11.48;;
35745;SDS011;21870;42.812;74.628;2023-03-23T15:35:23;17.13;;;11.38;;
35745;SDS011;21870;42.812;74.628;2023-03-23T15:38:04;12.38;;;10.85;;
35745;SDS011;21870;42.812;74.628;2023-03-23T15:40:33;20.52;;;10.93;;
35745;SDS011;21870;42.812;74.628;2023-03-23T15:43:07;18.75;;;11.68;;
35745;SDS011;21870;42.812;74.628;2023-03-23T15:45:52;16.35;;;11.02;;
35745;SDS011;21870;42.812;74.628;2023-03-23T15:48:45;13.32;;;10.45;;
35745;SDS011;21870;42.812;74.628;2023-03-23T15:51:13;21.77;;;10.52;;
35745;SDS011;21870;42.812;74.628;2023-03-23T15:53:41;12.10;;;10.85;;
35745;SDS011;21870;42.812;74.628;2023-03-23T15:56:08;12.75;;;11.40;;
35745;SDS011;21870;42.812;74.628;2023-03-23T15:58:36;13.60;;;10.82;;
35745;SDS011;21870;42.812;74.628;2023-03-23T16:01:13;13.88;;;10.32;;
35745;SDS011;21870;42.812;74.628;2023-03-23T16:06:17;14.07;;;9.68;;
35745;SDS011;21870;42.812;74.628;2023-03-23T16:08:45;16.10;;;10.40;;
35745;SDS011;21870;42.812;74.628;2023-03-23T16:11:15;16.35;;;10.55;;
35745;SDS011;21870;42.812;74.628;2023-03-23T16:13:43;21.88;;;13.65;;
35745;SDS011;21870;42.812;74.628;2023-03-23T16:17:11;20.90;;;14.45;;
35745;SDS011;21870;42.812;74.628;2023-03-23T16:19:08;20.67;;;14.80;;
35745;SDS011;21870;42.812;74.628;2023-03-23T16:21:37;19.10;;;14.23;;
35745;SDS011;21870;42.812;74.628;2023-03-23T16:24:03;23.60;;;15.90;;
35745;SDS011;21870;42.812;74.628;2023-03-23T16:26:29;21.52;;;15.40;;
35745;SDS011;21870;42.812;74.628;2023-03-23T16:28:56;30.63;;;15.23;;
35745;SDS011;21870;42.812;74.628;2023-03-23T16:31:22;27.35;;;16.88;;
35745;SDS011;21870;42.812;74.628;2023-03-23T16:33:48;32.90;;;19.35;;
35745;SDS011;21870;42.812;74.628;2023-03-23T16:36:14;27.92;;;17.25;;
35745;SDS011;21870;42.812;74.628;2023-03-23T16:38:40;20.15;;;14.77;;
35745;SDS011;21870;42.812;74.628;2023-03-23T16:41:06;19.58;;;13.95;;